»·PEaware :: DAL576 KSBP-KDEN

DAL576 :: KSBP-KDEN

FLIGHT INFORMATION

Flight Status: Arrived
Operator:
Delta Air Lines
More flights by this operator :: More flights under this callsign
Pilot: Anonymous 8274 (8274)
Aircraft: BOEING 737-200
(B732)
More flights by this aircraft type
Origin: KSBP San Luis Co Regl
United States
Destination: KDEN Denver Intl
United States
More flights between these airports :: More routes between these airports
Route: CREPE3 PRB AVE J1 LAX J9 LAS J76 TBC J128 HBU LARKS9
File this flight plan on PilotEdge
Remarks:
Altitude:
(Current/Filed)
33,000ft
Speed:
(Current/Filed)
460kts
Departed: 15-Jun-19 02:23 PM
Arrived: 15-Jun-19 04:40 PM
Distance/Time
Traveled:
807nm/2:17
Distance/Time
To Go:
Arrived

Flight Plot

Page will automatically refresh every two minutes.


Map Options




Map Legend


Flown Route
Filed Route
Departure Airport
Arrival Airport
Navaid (VOR, NDB)
Fix

Horizontal Profiles

Position Reports

Time Latitude Longitude Heading Altitude Ground
Speed
15-Jun-19 13:28 35.237868 -120.638287 89 184ft 0kts
15-Jun-19 13:29 35.237868 -120.638287 89 184ft 0kts
15-Jun-19 13:30 35.237868 -120.638287 89 184ft 0kts
15-Jun-19 13:31 35.237868 -120.638287 89 184ft 0kts
15-Jun-19 13:32 35.237868 -120.638287 89 184ft 0kts
15-Jun-19 13:33 35.237868 -120.638287 89 184ft 0kts
15-Jun-19 13:34 35.237868 -120.638287 89 184ft 0kts
15-Jun-19 13:35 35.237868 -120.638287 89 184ft 0kts
15-Jun-19 13:36 35.237868 -120.638287 89 184ft 0kts
15-Jun-19 13:37 35.237868 -120.638287 89 184ft 0kts
15-Jun-19 13:38 35.237868 -120.638287 89 184ft 0kts
15-Jun-19 13:39 35.237868 -120.638287 89 184ft 0kts
15-Jun-19 13:40 35.237868 -120.638287 89 184ft 0kts
15-Jun-19 13:41 35.237868 -120.638287 89 184ft 0kts
15-Jun-19 13:42 35.237868 -120.638287 89 184ft 0kts
15-Jun-19 13:43 35.237868 -120.638287 89 184ft 0kts
15-Jun-19 13:44 35.237868 -120.638287 89 184ft 0kts
15-Jun-19 13:45 35.237868 -120.638287 89 184ft 0kts
15-Jun-19 13:46 35.237868 -120.638287 89 184ft 0kts
15-Jun-19 13:47 35.237868 -120.638287 89 184ft 0kts
15-Jun-19 13:48 35.237868 -120.638287 89 184ft 0kts
15-Jun-19 13:49 35.237868 -120.638287 89 184ft 0kts
15-Jun-19 13:50 35.237868 -120.638287 89 184ft 0kts
15-Jun-19 13:51 35.237868 -120.638287 89 184ft 0kts
15-Jun-19 13:52 35.237868 -120.638287 89 184ft 0kts
15-Jun-19 13:53 35.237868 -120.638287 89 184ft 0kts
15-Jun-19 13:54 35.237868 -120.638287 89 184ft 0kts
15-Jun-19 13:55 35.237868 -120.638287 89 184ft 0kts
15-Jun-19 13:56 35.237868 -120.638287 89 184ft 0kts
15-Jun-19 13:57 35.237868 -120.638287 89 184ft 0kts
15-Jun-19 13:58 35.237868 -120.638287 89 184ft 0kts
15-Jun-19 13:59 35.237868 -120.638287 89 184ft 0kts
15-Jun-19 14:00 35.237868 -120.638287 89 184ft 0kts
15-Jun-19 14:01 35.237868 -120.638287 89 184ft 0kts
15-Jun-19 14:02 35.237868 -120.638287 89 184ft 0kts
15-Jun-19 14:03 35.237868 -120.638287 89 184ft 0kts
15-Jun-19 14:04 35.237868 -120.638287 89 184ft 0kts
15-Jun-19 14:05 35.237868 -120.638287 89 184ft 0kts
15-Jun-19 14:06 35.237868 -120.638287 89 184ft 0kts
15-Jun-19 14:07 35.237868 -120.638287 89 184ft 0kts
15-Jun-19 14:08 35.237868 -120.638287 89 184ft 0kts
15-Jun-19 14:09 35.237868 -120.638287 89 184ft 0kts
15-Jun-19 14:10 35.237868 -120.638287 89 184ft 0kts
15-Jun-19 14:11 35.237868 -120.638287 89 184ft 0kts
15-Jun-19 14:12 35.237868 -120.638287 89 184ft 0kts
15-Jun-19 14:13 35.237868 -120.638287 89 184ft 0kts
15-Jun-19 14:14 35.236846 -120.637855 191 184ft 7kts
15-Jun-19 14:15 35.234769 -120.634590 124 184ft 18kts
15-Jun-19 14:16 35.233365 -120.632393 181 184ft 0kts
15-Jun-19 14:17 35.233365 -120.632393 181 184ft 0kts
15-Jun-19 14:18 35.233365 -120.632393 181 184ft 0kts
15-Jun-19 14:19 35.233365 -120.632393 181 184ft 0kts
15-Jun-19 14:20 35.233365 -120.632393 181 184ft 0kts
15-Jun-19 14:21 35.232941 -120.633300 304 184ft 8kts
15-Jun-19 14:22 35.243555 -120.651601 306 410ft 143kts
15-Jun-19 14:23 35.267329 -120.693855 304 1990ft 176kts
15-Jun-19 14:24 35.300067 -120.751077 294 4229ft 221kts
15-Jun-19 14:25 35.273007 -120.808239 184 6521ft 262kts
15-Jun-19 14:26 35.203916 -120.764484 152 7988ft 294kts
15-Jun-19 14:27 35.139300 -120.702016 128 10210ft 313kts
15-Jun-19 14:28 35.093438 -120.601106 121 11787ft 364kts
15-Jun-19 14:29 35.046097 -120.488752 121 14144ft 378kts
15-Jun-19 14:30 34.997625 -120.371325 121 16214ft 392kts
15-Jun-19 14:31 34.948281 -120.249324 122 18035ft 404kts
15-Jun-19 14:32 34.893618 -120.132355 127 19602ft 411kts
15-Jun-19 14:33 34.828015 -120.012576 129 20818ft 429kts
15-Jun-19 14:34 34.760729 -119.892397 129 22380ft 433kts
15-Jun-19 14:35 34.689131 -119.772664 132 23613ft 439kts
15-Jun-19 14:36 34.613630 -119.652455 132 24744ft 448kts
15-Jun-19 14:37 34.537302 -119.530027 132 25754ft 456kts
15-Jun-19 14:39 34.460430 -119.405696 132 26677ft 464kts
15-Jun-19 14:40 34.385898 -119.274446 129 27469ft 474kts
15-Jun-19 14:41 34.311291 -119.139422 129 28186ft 480kts
15-Jun-19 14:42 34.241863 -118.999614 123 28842ft 490kts
15-Jun-19 14:43 34.176434 -118.852189 123 29464ft 496kts
15-Jun-19 14:44 34.110884 -118.704068 125 30038ft 500kts
15-Jun-19 14:45 34.031174 -118.567903 135 30903ft 489kts
15-Jun-19 14:46 33.948538 -118.434620 120 31224ft 508kts
15-Jun-19 14:47 33.952033 -118.269697 54 31543ft 511kts
15-Jun-19 14:48 34.047297 -118.147040 38 31907ft 502kts
15-Jun-19 14:49 34.146895 -118.027647 39 32300ft 505kts
15-Jun-19 14:50 34.232486 -117.889247 49 32642ft 516kts
15-Jun-19 14:51 34.316044 -117.746912 50 32971ft 519kts
15-Jun-19 14:52 34.397038 -117.599852 52 33003ft 530kts
15-Jun-19 14:53 34.477970 -117.449940 52 32970ft 525kts
15-Jun-19 14:54 34.557550 -117.303381 52 32957ft 513kts
15-Jun-19 14:55 34.635312 -117.160338 52 32960ft 500kts
15-Jun-19 14:56 34.710955 -117.020670 52 32963ft 489kts
15-Jun-19 14:57 34.785132 -116.883409 52 32887ft 481kts
15-Jun-19 14:57 34.847712 -116.771898 47 32887ft 470kts
15-Jun-19 14:59 34.940564 -116.626478 50 32896ft 468kts
15-Jun-19 15:00 35.019569 -116.501577 40 32922ft 463kts
15-Jun-19 15:00 35.094783 -116.405833 39 32928ft 470kts
15-Jun-19 15:01 35.186418 -116.289988 40 32910ft 478kts
15-Jun-19 15:03 35.294044 -116.154431 40 32912ft 484kts
15-Jun-19 15:03 35.372949 -116.055467 40 32912ft 488kts
15-Jun-19 15:04 35.468099 -115.936334 40 32915ft 490kts
15-Jun-19 15:05 35.564891 -115.816928 39 32917ft 493kts
15-Jun-19 15:06 35.660293 -115.695029 41 32920ft 498kts
15-Jun-19 15:07 35.755764 -115.570461 41 32922ft 501kts
15-Jun-19 15:08 35.852236 -115.445007 41 32877ft 506kts
15-Jun-19 15:09 35.947103 -115.321896 42 32905ft 509kts
15-Jun-19 15:10 36.045132 -115.194964 42 32873ft 511kts
15-Jun-19 15:11 36.106152 -115.042369 92 32875ft 512kts
15-Jun-19 15:12 36.094430 -114.866836 100 32858ft 509kts
15-Jun-19 15:13 36.084193 -114.692628 92 32863ft 510kts
15-Jun-19 15:14 36.085265 -114.516379 92 32863ft 510kts
15-Jun-19 15:15 36.085238 -114.344936 94 32866ft 509kts
15-Jun-19 15:16 36.082398 -114.169183 94 32853ft 507kts
15-Jun-19 15:17 36.079699 -113.994990 94 32856ft 506kts
15-Jun-19 15:18 36.077232 -113.821547 93 32912ft 504kts
15-Jun-19 15:19 36.075007 -113.647989 93 32993ft 502kts
15-Jun-19 15:20 36.072945 -113.475233 93 32999ft 502kts
15-Jun-19 15:21 36.071041 -113.307584 94 32986ft 503kts
15-Jun-19 15:22 36.069320 -113.134610 93 32989ft 502kts
15-Jun-19 15:23 36.067688 -112.961132 93 32992ft 501kts
15-Jun-19 15:24 36.070521 -112.788647 90 32994ft 502kts
15-Jun-19 15:25 36.075369 -112.616083 90 33136ft 499kts
15-Jun-19 15:26 36.083015 -112.443647 88 33162ft 500kts
15-Jun-19 15:27 36.092274 -112.276303 88 33149ft 501kts
15-Jun-19 15:28 36.102036 -112.104293 88 33152ft 500kts
15-Jun-19 15:29 36.110013 -111.932696 90 33154ft 499kts
15-Jun-19 15:30 36.115479 -111.760401 92 33156ft 498kts
15-Jun-19 15:31 36.117133 -111.588616 92 33160ft 499kts
15-Jun-19 15:32 36.118829 -111.417417 91 32834ft 496kts
15-Jun-19 15:33 36.122770 -111.252156 87 33002ft 498kts
15-Jun-19 15:34 36.157440 -111.087723 47 33081ft 507kts
15-Jun-19 15:35 36.251608 -110.958377 44 32856ft 491kts
15-Jun-19 15:36 36.348382 -110.837746 40 32905ft 494kts
15-Jun-19 15:37 36.446845 -110.718664 39 32904ft 490kts
15-Jun-19 15:38 36.538341 -110.591846 52 32913ft 495kts
15-Jun-19 15:39 36.613872 -110.446584 56 32975ft 503kts
15-Jun-19 15:40 36.683772 -110.303546 57 32962ft 508kts
15-Jun-19 15:41 36.757474 -110.153457 54 32993ft 503kts
15-Jun-19 15:42 36.837686 -110.011376 50 33127ft 496kts
15-Jun-19 15:43 36.918457 -109.870046 50 33129ft 495kts
15-Jun-19 15:44 36.996910 -109.728107 50 33109ft 490kts
15-Jun-19 15:45 37.073462 -109.586023 50 33132ft 486kts
15-Jun-19 15:46 37.147646 -109.448154 50 33136ft 484kts
15-Jun-19 15:47 37.220342 -109.313130 50 33123ft 482kts
15-Jun-19 15:48 37.294402 -109.175775 50 33119ft 479kts
15-Jun-19 15:49 37.369240 -109.037020 50 33048ft 477kts
15-Jun-19 15:50 37.443688 -108.899010 50 33049ft 475kts
15-Jun-19 15:51 37.518052 -108.761174 50 33050ft 473kts
15-Jun-19 15:52 37.591943 -108.624262 50 33052ft 472kts
15-Jun-19 15:53 37.666048 -108.486966 50 33054ft 471kts
15-Jun-19 15:54 37.744446 -108.355250 45 33055ft 467kts
15-Jun-19 15:55 37.821090 -108.235192 46 33055ft 464kts
15-Jun-19 15:56 37.900240 -108.106979 46 33202ft 459kts
15-Jun-19 15:57 37.976943 -107.977430 48 33314ft 456kts
15-Jun-19 15:58 38.047708 -107.842881 51 33319ft 457kts
15-Jun-19 15:59 38.114962 -107.714087 50 33322ft 457kts
15-Jun-19 16:00 38.182810 -107.584280 50 33324ft 457kts
15-Jun-19 16:01 38.248737 -107.444309 53 33251ft 467kts
15-Jun-19 16:02 38.306720 -107.307489 52 33178ft 466kts
15-Jun-19 16:03 38.374156 -107.168178 47 33181ft 459kts
15-Jun-19 16:04 38.443339 -107.031194 48 33182ft 458kts
15-Jun-19 16:05 38.501333 -106.883678 54 33184ft 464kts
15-Jun-19 16:06 38.553323 -106.731474 60 33186ft 469kts
15-Jun-19 16:07 38.606230 -106.579118 59 33179ft 468kts
15-Jun-19 16:08 38.654173 -106.423525 60 33163ft 471kts
15-Jun-19 16:09 38.697857 -106.279700 60 32468ft 463kts
15-Jun-19 16:10 38.744252 -106.127477 60 30513ft 455kts
15-Jun-19 16:11 38.801983 -105.985605 48 28120ft 441kts
15-Jun-19 16:12 38.871337 -105.859699 43 26244ft 424kts
15-Jun-19 16:13 38.946240 -105.746380 40 24408ft 408kts
15-Jun-19 16:14 39.024273 -105.644325 37 22709ft 391kts
15-Jun-19 16:15 39.099892 -105.550722 38 21240ft 372kts
15-Jun-19 16:16 39.173363 -105.471028 44 19324ft 373kts
15-Jun-19 16:17 39.240511 -105.373588 50 17280ft 346kts
15-Jun-19 16:18 39.292274 -105.284405 55 16983ft 324kts
15-Jun-19 16:19 39.343962 -105.188645 54 15507ft 321kts
15-Jun-19 16:20 39.389719 -105.098441 55 15232ft 285kts
15-Jun-19 16:21 39.460794 -105.060078 8 13883ft 310kts
15-Jun-19 16:22 39.546965 -105.048191 8 13023ft 310kts
15-Jun-19 16:23 39.629553 -105.033964 7 13015ft 311kts
15-Jun-19 16:24 39.710711 -105.019596 8 12998ft 311kts
15-Jun-19 16:25 39.790003 -105.005617 8 12663ft 307kts
15-Jun-19 16:26 39.874636 -104.990001 7 11269ft 310kts
15-Jun-19 16:27 39.959114 -104.973066 8 10128ft 305kts
15-Jun-19 16:28 40.042560 -104.956278 7 9031ft 299kts
15-Jun-19 16:29 40.115017 -104.941604 8 8663ft 276kts
15-Jun-19 16:30 40.171047 -104.890507 86 7627ft 261kts
15-Jun-19 16:31 40.178487 -104.799368 94 6972ft 228kts
15-Jun-19 16:32 40.139832 -104.753297 157 6996ft 194kts
15-Jun-19 16:33 40.090397 -104.722066 157 6988ft 194kts
15-Jun-19 16:34 40.042177 -104.691488 157 6985ft 189kts
15-Jun-19 16:35 39.992634 -104.686399 181 6989ft 166kts
15-Jun-19 16:36 39.951897 -104.686360 183 6426ft 139kts
15-Jun-19 16:37 39.913733 -104.686612 182 5708ft 134kts
15-Jun-19 16:38 39.882839 -104.686989 180 5363ft 81kts
15-Jun-19 16:39 39.876088 -104.685506 151 5358ft 0kts
15-Jun-19 16:40 39.876055 -104.685482 151 5358ft 0kts
15-Jun-19 16:41 39.872780 -104.684985 180 5358ft 18kts
15-Jun-19 16:42 39.867135 -104.685042 179 5361ft 24kts
15-Jun-19 16:43 39.864248 -104.682442 88 5371ft 17kts
15-Jun-19 16:44 39.864753 -104.676137 91 5376ft 17kts
15-Jun-19 16:45 39.863575 -104.673054 178 5376ft 0kts

Navigation Log

Ident Type
Flight plan parsing failed, navigation log unavailable